Aviation Digital Data Service (ADDS)

Output produced by METARs form (2026 UTC 20 July 2017)
found at http://www.aviationweather.gov/adds/metars/
 
METAR text: KTAZ 202015Z AUTO 22012KT 10SM CLR 34/24 A3000 RMK AO2 T03380235
Conditions at: KTAZ (TAYLORVILLE , IL, US) observed 2015 UTC 20 July 2017
Temperature: 33.8°C (93°F)
Dewpoint: 23.5°C (74°F) [RH = 55%]
Pressure (altimeter): 30.00 inches Hg (1016.0 mb)
Winds: from the SW (220 degrees) at 14 MPH (12 knots; 6.2 m/s)
Visibility: 10 or more miles (16+ km)
Ceiling: at least 12,000 feet AGL
Clouds: sky clear below 12,000 feet AGL
Weather: automated observation with no human augmentation;
there may or may not be significant weather present at this time